createdAt,value
2022-12-01T00:01:01.693Z,17.67
2022-12-01T00:03:30.988Z,18.88
2022-12-01T00:05:58.927Z,18.45
2022-12-01T00:08:25.366Z,18.17
2022-12-01T00:10:51.784Z,17.30
2022-12-01T00:13:18.190Z,17.60
2022-12-01T00:15:44.754Z,16.80
2022-12-01T00:18:11.181Z,17.52
2022-12-01T00:20:37.685Z,17.73
2022-12-01T00:23:04.089Z,17.80
2022-12-01T00:25:32.026Z,18.08
2022-12-01T00:27:58.444Z,16.67
2022-12-01T00:30:24.928Z,17.80
2022-12-01T00:32:51.337Z,17.27
2022-12-01T00:35:17.892Z,15.77
2022-12-01T00:37:44.412Z,16.45
2022-12-01T00:40:11.530Z,17.58
2022-12-01T00:42:37.991Z,16.05
2022-12-01T00:45:04.887Z,17.10
2022-12-01T00:47:31.327Z,17.43
2022-12-01T00:49:57.719Z,16.23
2022-12-01T00:52:24.122Z,16.80
2022-12-01T00:54:50.558Z,16.75
2022-12-01T00:57:17.002Z,16.65
2022-12-01T00:59:43.392Z,16.40
2022-12-01T01:02:09.852Z,15.60
2022-12-01T01:04:36.918Z,15.95
2022-12-01T01:07:03.506Z,16.60
2022-12-01T01:09:31.837Z,15.52
2022-12-01T01:11:58.323Z,15.73
2022-12-01T01:14:24.742Z,16.95
2022-12-01T01:16:51.233Z,15.20
2022-12-01T01:19:17.931Z,16.50
2022-12-01T01:21:44.363Z,16.17
2022-12-01T01:24:10.895Z,15.50
2022-12-01T01:26:37.840Z,15.43
2022-12-01T01:29:05.921Z,16.83
2022-12-01T01:31:32.669Z,15.55
2022-12-01T01:33:59.166Z,15.82
2022-12-01T01:36:26.675Z,15.63
2022-12-01T01:38:53.316Z,16.75
2022-12-01T01:41:21.262Z,16.67
2022-12-01T01:43:57.162Z,16.75
2022-12-01T01:46:28.114Z,16.08
2022-12-01T01:48:57.319Z,16.00
2022-12-01T01:51:29.517Z,16.80
2022-12-01T01:54:02.404Z,16.20
2022-12-01T01:56:29.609Z,15.27
2022-12-01T01:58:56.818Z,15.93
2022-12-01T02:01:23.335Z,18.50
2022-12-01T02:03:52.383Z,16.50
2022-12-01T02:06:19.118Z,17.88
2022-12-01T02:08:45.556Z,16.83
2022-12-01T02:11:18.495Z,17.00
2022-12-01T02:14:14.364Z,16.97
2022-12-01T02:16:46.700Z,16.55
2022-12-01T02:19:33.416Z,16.52
2022-12-01T02:22:11.687Z,16.58
2022-12-01T02:24:41.109Z,16.23
2022-12-01T02:27:31.688Z,17.00
2022-12-01T02:30:14.329Z,17.08
2022-12-01T02:32:49.275Z,17.15
2022-12-01T02:35:33.704Z,18.00
2022-12-01T02:38:21.913Z,16.85
2022-12-01T02:41:17.662Z,18.37
2022-12-01T02:43:53.224Z,17.58
2022-12-01T02:46:32.755Z,18.15
2022-12-01T02:49:06.530Z,17.42
2022-12-01T02:51:35.859Z,17.35
2022-12-01T02:54:04.635Z,16.90
2022-12-01T02:56:31.099Z,17.77
2022-12-01T02:58:57.734Z,16.95
2022-12-01T03:01:45.440Z,17.70
2022-12-01T03:04:27.226Z,18.02
2022-12-01T03:07:12.194Z,17.73
2022-12-01T03:09:57.341Z,16.75
2022-12-01T03:12:43.960Z,17.42
2022-12-01T03:15:25.409Z,16.63
2022-12-01T03:18:14.307Z,17.85
2022-12-01T03:20:55.541Z,17.03
2022-12-01T03:23:26.543Z,16.13
2022-12-01T03:25:56.341Z,17.60
2022-12-01T03:28:28.656Z,17.38
2022-12-01T03:30:59.387Z,17.63
2022-12-01T03:33:33.821Z,16.73
2022-12-01T03:36:16.545Z,18.40
2022-12-01T03:38:48.768Z,17.77
2022-12-01T03:41:25.163Z,16.92
2022-12-01T03:44:01.513Z,18.52
2022-12-01T03:46:47.497Z,19.40
2022-12-01T03:49:17.019Z,18.35
2022-12-01T03:51:46.437Z,19.25
2022-12-01T03:54:33.729Z,18.58
2022-12-01T03:57:05.303Z,18.50
2022-12-01T03:59:33.938Z,18.03
2022-12-01T04:02:00.413Z,19.27
2022-12-01T04:04:26.974Z,19.33
2022-12-01T04:06:53.661Z,19.98
2022-12-01T04:09:20.104Z,19.45
2022-12-01T04:11:46.513Z,19.70
2022-12-01T04:14:13.020Z,19.75
2022-12-01T04:16:39.519Z,19.30
2022-12-01T04:19:06.240Z,19.80
2022-12-01T04:21:32.699Z,21.08
2022-12-01T04:23:59.260Z,20.80
2022-12-01T04:26:26.569Z,21.02
2022-12-01T04:28:53.025Z,20.23
2022-12-01T04:31:19.524Z,20.55
2022-12-01T04:33:45.939Z,20.23
2022-12-01T04:36:12.359Z,20.67
2022-12-01T04:38:38.856Z,19.92
2022-12-01T04:41:09.995Z,19.77
2022-12-01T04:43:37.198Z,21.67
2022-12-01T04:46:04.297Z,19.88
2022-12-01T04:48:30.853Z,21.20
2022-12-01T04:50:57.682Z,20.55
2022-12-01T04:53:24.084Z,20.88
2022-12-01T04:55:50.830Z,20.20
2022-12-01T04:58:17.261Z,20.48
2022-12-01T05:00:43.717Z,21.60
2022-12-01T05:03:14.896Z,20.55
2022-12-01T05:05:41.720Z,20.83
2022-12-01T05:08:08.354Z,21.50
2022-12-01T05:10:36.254Z,20.50
2022-12-01T05:13:04.040Z,19.67
2022-12-01T05:15:30.763Z,22.13
2022-12-01T05:17:57.455Z,21.75
2022-12-01T05:20:26.518Z,22.15
2022-12-01T05:23:05.176Z,21.40
2022-12-01T05:25:32.255Z,20.83
2022-12-01T05:27:59.134Z,21.30
2022-12-01T05:30:28.552Z,20.95
2022-12-01T05:32:55.684Z,21.08
2022-12-01T05:35:22.137Z,21.08
2022-12-01T05:37:48.549Z,21.90
2022-12-01T05:40:15.022Z,20.85
2022-12-01T05:42:41.463Z,21.58
2022-12-01T05:45:08.384Z,21.25
2022-12-01T05:47:34.787Z,20.05
2022-12-01T05:50:05.583Z,21.33
2022-12-01T05:52:34.188Z,19.52
2022-12-01T05:55:01.086Z,21.30
2022-12-01T05:57:27.591Z,20.77
2022-12-01T05:59:54.085Z,20.30
2022-12-01T06:02:20.507Z,21.40
2022-12-01T06:04:46.979Z,19.70
2022-12-01T06:07:13.450Z,19.52
2022-12-01T06:09:39.939Z,20.73
2022-12-01T06:12:06.536Z,19.90
2022-12-01T06:14:32.954Z,20.33
2022-12-01T06:16:59.480Z,19.15
2022-12-01T06:19:25.981Z,19.85
2022-12-01T06:21:52.422Z,20.52
2022-12-01T06:24:18.899Z,19.73
2022-12-01T06:26:45.293Z,18.80
2022-12-01T06:29:11.782Z,20.98
2022-12-01T06:31:38.293Z,20.10
2022-12-01T06:34:04.693Z,19.98
2022-12-01T06:36:31.497Z,20.15
2022-12-01T06:38:57.934Z,19.23
2022-12-01T06:41:24.376Z,19.38
2022-12-01T06:43:50.736Z,19.05
2022-12-01T06:46:17.191Z,19.58
2022-12-01T06:48:43.668Z,19.55
2022-12-01T06:51:11.139Z,19.07
2022-12-01T06:53:37.607Z,18.67
2022-12-01T06:56:05.157Z,18.92
2022-12-01T06:58:32.413Z,18.17
2022-12-01T07:00:59.411Z,18.75
2022-12-01T07:03:26.109Z,17.70
2022-12-01T07:05:57.459Z,18.30
2022-12-01T07:08:24.524Z,18.80
2022-12-01T07:11:01.693Z,17.70
2022-12-01T07:13:33.103Z,16.70
2022-12-01T07:16:01.652Z,17.87
2022-12-01T07:18:28.859Z,18.10
2022-12-01T07:21:00.289Z,18.20
2022-12-01T07:23:27.082Z,19.00
2022-12-01T07:26:10.368Z,20.33
2022-12-01T07:28:36.916Z,19.30
2022-12-01T07:31:06.206Z,20.25
2022-12-01T07:33:33.015Z,19.38
2022-12-01T07:35:59.533Z,18.85
2022-12-01T07:38:31.375Z,21.48
2022-12-01T07:41:12.887Z,19.70
2022-12-01T07:43:39.867Z,18.95
2022-12-01T07:46:11.376Z,20.05
2022-12-01T07:48:39.801Z,20.65
2022-12-01T07:51:08.494Z,21.90
2022-12-01T07:53:35.164Z,21.73
2022-12-01T07:56:05.681Z,20.20
2022-12-01T07:58:35.525Z,21.10
2022-12-01T08:01:10.170Z,21.20
2022-12-01T08:03:36.684Z,23.00
2022-12-01T08:06:04.304Z,20.90
2022-12-01T08:08:33.045Z,22.52
2022-12-01T08:11:02.030Z,23.08
2022-12-01T08:13:29.132Z,23.42
2022-12-01T08:15:55.934Z,22.17
2022-12-01T08:18:22.935Z,22.50
2022-12-01T08:20:50.462Z,21.35
2022-12-01T08:23:16.950Z,23.52
2022-12-01T08:25:43.484Z,20.80
2022-12-01T08:28:09.915Z,22.30
2022-12-01T08:30:36.762Z,21.23
2022-12-01T08:33:03.400Z,21.63
2022-12-01T08:35:29.934Z,22.23
2022-12-01T08:37:56.531Z,23.02
2022-12-01T08:40:23.111Z,22.10
2022-12-01T08:42:51.992Z,22.37
2022-12-01T08:45:18.652Z,22.25
2022-12-01T08:47:45.128Z,22.67
2022-12-01T08:50:11.760Z,21.80
2022-12-01T08:52:38.269Z,22.45
2022-12-01T08:55:05.773Z,21.87
2022-12-01T08:57:32.295Z,22.40
2022-12-01T08:59:58.818Z,21.75
2022-12-01T09:02:25.408Z,20.63
2022-12-01T09:04:52.101Z,22.42
2022-12-01T09:07:25.872Z,20.53
2022-12-01T09:09:53.157Z,21.77
2022-12-01T09:12:19.760Z,20.00
2022-12-01T09:14:46.228Z,20.60
2022-12-01T09:17:12.674Z,21.05
2022-12-01T09:19:39.136Z,21.53
2022-12-01T09:22:05.685Z,19.95
2022-12-01T09:24:32.088Z,20.77
2022-12-01T09:26:59.421Z,21.15
2022-12-01T09:29:26.119Z,21.40
2022-12-01T09:31:56.525Z,20.23
2022-12-01T09:34:23.565Z,21.60
2022-12-01T09:36:50.105Z,20.90
2022-12-01T09:39:19.608Z,21.17
2022-12-01T09:41:48.916Z,19.70
2022-12-01T09:44:34.881Z,21.13
2022-12-01T09:47:33.510Z,20.80
2022-12-01T09:50:05.278Z,20.73
2022-12-01T09:52:41.403Z,19.20
2022-12-01T09:55:13.856Z,19.67
2022-12-01T09:57:41.292Z,19.93
2022-12-01T10:00:14.571Z,18.77
2022-12-01T10:02:50.934Z,18.77
2022-12-01T10:05:21.055Z,18.73
2022-12-01T10:07:50.194Z,19.33
2022-12-01T10:10:34.855Z,18.50
2022-12-01T10:13:01.439Z,18.92
2022-12-01T10:15:37.010Z,17.90
2022-12-01T10:18:13.775Z,19.70
2022-12-01T10:20:44.582Z,18.08
2022-12-01T10:23:29.235Z,18.87
2022-12-01T10:25:58.355Z,17.92
2022-12-01T10:28:52.739Z,18.83
2022-12-01T10:31:20.509Z,17.80
2022-12-01T10:34:36.501Z,18.73
2022-12-01T10:37:03.405Z,19.30
2022-12-01T10:39:35.042Z,18.15
2022-12-01T10:42:13.382Z,19.50
2022-12-01T10:44:40.257Z,19.52
2022-12-01T10:47:26.536Z,18.25
2022-12-01T10:49:53.230Z,18.20
2022-12-01T10:52:40.607Z,17.77
2022-12-01T10:55:25.266Z,18.25
2022-12-01T10:57:54.127Z,17.42
2022-12-01T11:01:01.232Z,18.38
2022-12-01T11:03:22.454Z,17.13
2022-12-01T11:05:58.286Z,19.33
2022-12-01T11:08:38.998Z,17.85
2022-12-01T11:11:06.098Z,18.20
2022-12-01T11:13:36.368Z,18.33
2022-12-01T11:16:06.104Z,18.10
2022-12-01T11:18:38.444Z,18.02
2022-12-01T11:21:25.468Z,17.33
2022-12-01T11:23:54.728Z,16.30
2022-12-01T11:26:21.100Z,17.27
2022-12-01T11:28:53.572Z,17.17
2022-12-01T11:31:25.647Z,17.25
2022-12-01T11:33:54.462Z,16.85
2022-12-01T11:36:44.613Z,16.95
2022-12-01T11:39:26.948Z,18.20
2022-12-01T11:41:59.366Z,15.27
2022-12-01T11:44:50.361Z,17.42
2022-12-01T11:47:23.241Z,15.40
2022-12-01T11:50:01.250Z,17.77
2022-12-01T11:52:36.128Z,16.70
2022-12-01T11:55:23.277Z,16.20
2022-12-01T11:57:52.623Z,16.60
2022-12-01T12:00:25.365Z,18.02
2022-12-01T12:03:04.064Z,17.73
2022-12-01T12:05:49.404Z,18.25
2022-12-01T12:08:44.853Z,17.43
2022-12-01T12:11:18.990Z,17.83
2022-12-01T12:14:28.940Z,17.13
2022-12-01T12:17:09.389Z,17.52
2022-12-01T12:20:08.087Z,17.73
2022-12-01T12:22:34.865Z,17.13
2022-12-01T12:25:05.907Z,17.00
2022-12-01T12:27:46.835Z,17.05
2022-12-01T12:30:18.973Z,18.05
2022-12-01T12:33:11.796Z,16.38
2022-12-01T12:35:48.124Z,17.47
2022-12-01T12:38:32.686Z,16.88
2022-12-01T12:41:16.801Z,17.08
2022-12-01T12:44:05.084Z,18.20
2022-12-01T12:47:07.753Z,18.50
2022-12-01T12:49:46.905Z,17.63
2022-12-01T12:52:19.701Z,17.88
2022-12-01T12:54:53.076Z,17.65
2022-12-01T12:57:31.426Z,17.80
2022-12-01T13:00:03.499Z,16.92
2022-12-01T13:02:39.035Z,16.83
2022-12-01T13:05:23.340Z,17.38
2022-12-01T13:07:56.028Z,16.65
2022-12-01T13:10:42.529Z,17.10
2022-12-01T13:13:33.993Z,16.85
2022-12-01T13:16:03.482Z,16.43
2022-12-01T13:18:34.069Z,16.60
2022-12-01T13:21:03.265Z,18.70
2022-12-01T13:23:30.755Z,16.92
2022-12-01T13:26:01.170Z,16.70
2022-12-01T13:28:34.355Z,17.07
2022-12-01T13:31:09.791Z,17.45
2022-12-01T13:33:38.854Z,17.85
2022-12-01T13:39:03.215Z,17.05
2022-12-01T13:41:33.209Z,16.90
2022-12-01T13:44:07.976Z,17.45
2022-12-01T13:46:37.159Z,17.05
2022-12-01T13:49:04.682Z,17.67
2022-12-01T13:52:09.431Z,16.83
2022-12-01T13:54:36.670Z,16.20
2022-12-01T13:57:13.855Z,15.88
2022-12-01T14:00:02.198Z,15.68
2022-12-01T14:02:34.293Z,16.27
2022-12-01T14:05:22.753Z,16.80
2022-12-01T14:07:58.429Z,17.07
2022-12-01T14:10:32.916Z,16.58
2022-12-01T14:13:03.786Z,17.77
2022-12-01T14:15:37.643Z,17.67
2022-12-01T14:18:18.290Z,17.50
2022-12-01T14:20:47.081Z,16.97
2022-12-01T14:23:23.259Z,16.00
2022-12-01T14:26:22.543Z,15.40
2022-12-01T14:28:55.093Z,17.58
2022-12-01T14:31:44.299Z,16.48
2022-12-01T14:34:18.746Z,16.30
2022-12-01T14:36:53.482Z,16.95
2022-12-01T14:39:26.082Z,16.05
2022-12-01T14:41:59.962Z,15.68
2022-12-01T14:44:34.719Z,16.92
2022-12-01T14:47:10.093Z,15.77
2022-12-01T14:49:42.931Z,15.55
2022-12-01T14:52:38.362Z,15.27
2022-12-01T14:55:13.320Z,15.10
2022-12-01T14:57:44.037Z,15.50
2022-12-01T15:00:15.820Z,14.63
2022-12-01T15:02:48.327Z,15.95
2022-12-01T15:05:17.459Z,15.18
2022-12-01T15:07:47.445Z,15.82
2022-12-01T15:10:27.215Z,14.77
2022-12-01T15:12:54.096Z,14.70
2022-12-01T15:15:25.971Z,15.13
2022-12-01T15:17:54.063Z,14.52
2022-12-01T15:20:37.223Z,15.13
2022-12-01T15:23:15.495Z,15.23
2022-12-01T15:25:44.096Z,15.33
2022-12-01T15:28:14.859Z,15.40
2022-12-01T15:30:43.663Z,16.25
2022-12-01T15:33:37.417Z,16.27
2022-12-01T15:36:05.540Z,16.33
2022-12-01T15:38:35.766Z,16.00
2022-12-01T15:43:59.842Z,15.82
2022-12-01T15:46:31.962Z,14.80
2022-12-01T15:49:24.042Z,16.98
2022-12-01T15:51:51.871Z,15.67
2022-12-01T15:54:25.393Z,15.10
2022-12-01T15:56:54.417Z,15.27
2022-12-01T15:59:41.235Z,16.08
2022-12-01T16:02:19.907Z,16.25
2022-12-01T16:04:48.071Z,15.90
2022-12-01T16:07:15.256Z,16.83
2022-12-01T16:10:01.103Z,16.75
2022-12-01T16:12:29.646Z,16.55
2022-12-01T16:15:02.229Z,15.30
2022-12-01T16:17:41.987Z,15.50
2022-12-01T16:20:24.468Z,15.93
2022-12-01T16:22:56.912Z,16.15
2022-12-01T16:25:35.905Z,16.13
2022-12-01T16:28:03.893Z,17.30
2022-12-01T16:30:37.248Z,16.40
2022-12-01T16:33:06.859Z,16.92
2022-12-01T16:35:34.184Z,17.42
2022-12-01T16:38:11.852Z,18.13
2022-12-01T16:40:41.302Z,16.95
2022-12-01T16:43:13.627Z,17.80
2022-12-01T16:45:40.126Z,17.58
2022-12-01T16:48:09.469Z,18.33
2022-12-01T16:50:36.459Z,18.35
2022-12-01T16:53:03.403Z,18.92
2022-12-01T16:55:35.920Z,19.73
2022-12-01T16:58:02.409Z,19.85
2022-12-01T17:00:29.066Z,19.20
2022-12-01T17:02:55.896Z,18.65
2022-12-01T17:05:22.380Z,20.45
2022-12-01T17:07:49.013Z,18.80
2022-12-01T17:10:15.867Z,18.17
2022-12-01T17:12:42.386Z,19.75
2022-12-01T17:15:09.438Z,18.33
2022-12-01T17:17:36.471Z,20.10
2022-12-01T17:20:05.167Z,19.90
2022-12-01T17:22:31.560Z,18.35
2022-12-01T17:24:58.053Z,17.70
2022-12-01T17:27:24.717Z,19.80
2022-12-01T17:29:51.316Z,19.98
2022-12-01T17:32:17.750Z,20.37
2022-12-01T17:34:44.246Z,24.73
2022-12-01T17:37:12.140Z,25.73
2022-12-01T17:39:41.353Z,25.50
2022-12-01T17:42:08.104Z,23.70
2022-12-01T17:44:35.239Z,23.70
2022-12-01T17:47:01.709Z,23.08
2022-12-01T17:49:28.181Z,21.25
2022-12-01T17:51:54.673Z,22.23
2022-12-01T17:54:21.193Z,25.08
2022-12-01T17:56:47.818Z,26.50
2022-12-01T17:59:14.860Z,22.83
2022-12-01T18:01:41.319Z,21.95
2022-12-01T18:04:07.839Z,19.67
2022-12-01T18:06:34.465Z,20.88
2022-12-01T18:09:01.191Z,20.73
2022-12-01T18:11:27.964Z,21.65
2022-12-01T18:13:54.413Z,23.77
2022-12-01T18:16:24.816Z,22.17
2022-12-01T18:18:52.216Z,23.98
2022-12-01T18:21:20.204Z,23.67
2022-12-01T18:23:50.623Z,23.33
2022-12-01T18:26:17.604Z,23.52
2022-12-01T18:28:44.420Z,23.13
2022-12-01T18:31:13.626Z,22.58
2022-12-01T18:33:42.306Z,21.57
2022-12-01T18:36:14.539Z,21.42
2022-12-01T18:38:41.424Z,22.88
2022-12-01T18:41:08.473Z,23.13
2022-12-01T18:43:35.946Z,22.40
2022-12-01T18:46:04.475Z,22.93
2022-12-01T18:48:30.969Z,22.02
2022-12-01T18:51:04.949Z,22.60
2022-12-01T18:53:32.315Z,22.65
2022-12-01T18:56:06.935Z,21.33
2022-12-01T18:58:33.883Z,20.97
2022-12-01T19:01:01.402Z,22.02
2022-12-01T19:03:32.013Z,23.08
2022-12-01T19:05:59.177Z,24.52
2022-12-01T19:08:25.585Z,25.48
2022-12-01T19:11:03.698Z,25.60
2022-12-01T19:13:32.061Z,25.88
2022-12-01T19:15:58.794Z,25.48
2022-12-01T19:18:25.238Z,25.92
2022-12-01T19:20:51.681Z,25.80
2022-12-01T19:23:18.096Z,24.33
2022-12-01T19:25:44.541Z,25.25
2022-12-01T19:28:11.064Z,24.08
2022-12-01T19:30:38.272Z,24.65
2022-12-01T19:33:04.787Z,24.25
2022-12-01T19:35:31.512Z,23.57
2022-12-01T19:37:57.976Z,24.58
2022-12-01T19:40:24.449Z,24.08
2022-12-01T19:42:50.909Z,24.13
2022-12-01T19:45:17.426Z,22.83
2022-12-01T19:47:43.825Z,22.77
2022-12-01T19:50:10.621Z,24.85
2022-12-01T19:52:37.214Z,22.77
2022-12-01T19:55:03.716Z,23.83
2022-12-01T19:57:30.121Z,24.10
2022-12-01T19:59:56.639Z,23.93
2022-12-01T20:02:28.800Z,24.92
2022-12-01T20:04:55.720Z,24.83
2022-12-01T20:07:22.456Z,23.20
2022-12-01T20:09:50.241Z,22.85
2022-12-01T20:12:17.069Z,21.90
2022-12-01T20:14:43.635Z,22.45
2022-12-01T20:17:15.576Z,23.70
2022-12-01T20:19:42.500Z,23.23
2022-12-01T20:22:09.038Z,23.73
2022-12-01T20:24:35.855Z,24.80
2022-12-01T20:27:02.335Z,25.45
2022-12-01T20:29:29.635Z,23.50
2022-12-01T20:31:58.348Z,21.38
2022-12-01T20:34:31.389Z,21.05
2022-12-01T20:36:58.336Z,21.53
2022-12-01T20:39:24.874Z,21.13
2022-12-01T20:41:51.398Z,19.65
2022-12-01T20:44:18.134Z,21.70
2022-12-01T20:46:44.842Z,18.98
2022-12-01T20:49:12.296Z,19.23
2022-12-01T20:51:39.031Z,20.10
2022-12-01T20:56:53.840Z,20.60
2022-12-01T20:59:20.349Z,20.95
2022-12-01T21:01:46.814Z,20.57
2022-12-01T21:04:13.281Z,21.42
2022-12-01T21:06:39.799Z,21.48
2022-12-01T21:09:06.261Z,21.45
2022-12-01T21:11:45.711Z,22.30
2022-12-01T21:14:36.777Z,22.47
2022-12-01T21:17:18.583Z,21.55
2022-12-01T21:20:28.680Z,23.45
2022-12-01T21:23:05.306Z,23.60
2022-12-01T21:25:31.785Z,22.63
2022-12-01T21:28:02.728Z,25.17
2022-12-01T21:30:29.240Z,20.45
2022-12-01T21:33:14.629Z,24.90
2022-12-01T21:35:41.042Z,23.20
2022-12-01T21:38:12.226Z,25.95
2022-12-01T21:40:41.563Z,20.93
2022-12-01T21:43:24.454Z,21.58
2022-12-01T21:45:57.766Z,20.10
2022-12-01T21:48:24.756Z,19.30
2022-12-01T21:50:59.250Z,19.35
2022-12-01T21:53:31.201Z,18.63
2022-12-01T21:55:57.717Z,20.42
2022-12-01T21:58:30.708Z,19.27
2022-12-01T22:00:58.802Z,20.15
2022-12-01T22:03:28.918Z,25.60
2022-12-01T22:08:55.644Z,27.17
2022-12-01T22:11:27.517Z,27.63
2022-12-01T22:13:59.736Z,24.88
2022-12-01T22:16:30.742Z,23.08
2022-12-01T22:19:08.375Z,21.80
2022-12-01T22:21:39.702Z,19.77
2022-12-01T22:24:08.928Z,20.85
2022-12-01T22:26:37.829Z,22.55
2022-12-01T22:29:23.143Z,20.73
2022-12-01T22:31:49.621Z,18.63
2022-12-01T22:34:19.856Z,19.90
2022-12-01T22:36:46.364Z,21.80
2022-12-01T22:39:31.862Z,21.13
2022-12-01T22:42:01.615Z,24.73
2022-12-01T22:44:31.056Z,22.77
2022-12-01T22:47:02.030Z,19.88
2022-12-01T22:49:29.327Z,19.42
2022-12-01T22:51:55.664Z,18.45
2022-12-01T22:54:26.682Z,19.65
2022-12-01T22:57:03.710Z,18.43
2022-12-01T22:59:39.598Z,19.95
2022-12-01T23:02:15.373Z,19.38
2022-12-01T23:04:44.598Z,19.92
2022-12-01T23:07:28.235Z,19.23
2022-12-01T23:09:57.375Z,18.20
2022-12-01T23:12:32.626Z,19.77
2022-12-01T23:15:07.019Z,18.73
2022-12-01T23:17:33.496Z,19.08
2022-12-01T23:20:24.502Z,18.75
2022-12-01T23:22:59.265Z,18.00
2022-12-01T23:25:26.977Z,19.35
2022-12-01T23:27:55.316Z,19.77
2022-12-01T23:30:22.553Z,20.13
2022-12-01T23:33:18.910Z,21.67
2022-12-01T23:35:51.714Z,19.87
2022-12-01T23:38:41.051Z,20.08
2022-12-01T23:41:12.910Z,20.17
2022-12-01T23:43:42.819Z,20.55
2022-12-01T23:46:16.043Z,19.23
2022-12-01T23:48:52.354Z,20.17
2022-12-01T23:51:20.578Z,18.83
2022-12-01T23:53:47.188Z,20.35
2022-12-01T23:56:20.412Z,20.77
2022-12-01T23:58:47.675Z,20.52
